createdAt,value
2022-08-24T00:02:01.747Z,19.82
2022-08-24T00:04:32.287Z,19.82
2022-08-24T00:07:02.855Z,19.81
2022-08-24T00:09:32.635Z,19.84
2022-08-24T00:12:01.131Z,19.83
2022-08-24T00:14:29.401Z,19.80
2022-08-24T00:16:58.897Z,19.76
2022-08-24T00:19:28.151Z,19.73
2022-08-24T00:21:56.241Z,19.67
2022-08-24T00:24:24.139Z,19.67
2022-08-24T00:26:53.997Z,19.67
2022-08-24T00:29:22.989Z,19.65
2022-08-24T00:31:50.978Z,19.62
2022-08-24T00:34:19.627Z,19.58
2022-08-24T00:36:47.696Z,19.61
2022-08-24T00:39:15.775Z,19.64
2022-08-24T00:41:47.411Z,19.60
2022-08-24T00:44:17.149Z,19.61
2022-08-24T00:46:57.184Z,19.59
2022-08-24T00:49:44.029Z,19.49
2022-08-24T00:52:27.988Z,19.49
2022-08-24T00:55:03.402Z,19.46
2022-08-24T00:57:36.924Z,19.40
2022-08-24T01:00:14.838Z,19.37
2022-08-24T01:02:48.965Z,19.39
2022-08-24T01:05:17.914Z,19.41
2022-08-24T01:07:50.819Z,19.39
2022-08-24T01:10:27.364Z,19.34
2022-08-24T01:13:01.462Z,19.34
2022-08-24T01:15:35.261Z,19.30
2022-08-24T01:18:25.138Z,19.22
2022-08-24T01:21:03.610Z,19.27
2022-08-24T01:23:42.041Z,19.26
2022-08-24T01:26:28.427Z,19.24
2022-08-24T01:29:03.010Z,19.22
2022-08-24T01:31:33.030Z,19.13
2022-08-24T01:34:01.100Z,19.06
2022-08-24T01:36:36.277Z,19.07
2022-08-24T01:39:20.646Z,19.05
2022-08-24T01:41:50.990Z,19.01
2022-08-24T01:44:22.068Z,19.00
2022-08-24T01:46:53.786Z,19.00
2022-08-24T01:49:28.125Z,18.99
2022-08-24T01:51:57.510Z,18.99
2022-08-24T01:54:27.186Z,19.02
2022-08-24T01:56:55.218Z,19.14
2022-08-24T01:59:23.790Z,19.22
2022-08-24T02:02:30.803Z,19.21
2022-08-24T02:04:58.839Z,19.28
2022-08-24T02:07:27.322Z,19.34
2022-08-24T02:09:55.292Z,19.32
2022-08-24T02:12:23.294Z,19.12
2022-08-24T02:14:51.504Z,19.09
2022-08-24T02:17:20.092Z,19.12
2022-08-24T02:19:48.201Z,19.11
2022-08-24T02:22:16.413Z,19.05
2022-08-24T02:24:44.339Z,19.07
2022-08-24T02:27:13.339Z,19.09
2022-08-24T02:29:41.328Z,19.09
2022-08-24T02:32:09.622Z,19.06
2022-08-24T02:34:38.159Z,18.99
2022-08-24T02:37:06.441Z,18.94
2022-08-24T02:39:34.459Z,18.94
2022-08-24T02:42:05.565Z,18.96
2022-08-24T02:44:33.739Z,18.94
2022-08-24T02:47:01.624Z,18.91
2022-08-24T02:49:30.630Z,18.88
2022-08-24T02:51:59.083Z,18.90
2022-08-24T02:54:27.151Z,18.91
2022-08-24T02:56:55.421Z,18.91
2022-08-24T02:59:24.703Z,18.93
2022-08-24T03:01:53.400Z,18.89
2022-08-24T03:04:21.662Z,18.91
2022-08-24T03:06:49.574Z,18.88
2022-08-24T03:09:18.159Z,18.92
2022-08-24T03:11:46.113Z,18.95
2022-08-24T03:14:14.713Z,18.94
2022-08-24T03:16:42.838Z,18.92
2022-08-24T03:19:11.945Z,18.90
2022-08-24T03:21:40.240Z,18.91
2022-08-24T03:24:08.955Z,18.90
2022-08-24T03:26:37.201Z,18.85
2022-08-24T03:29:05.818Z,18.78
2022-08-24T03:31:35.602Z,18.78
2022-08-24T03:34:04.579Z,18.82
2022-08-24T03:36:32.863Z,18.82
2022-08-24T03:39:00.859Z,18.83
2022-08-24T03:41:29.140Z,18.83
2022-08-24T03:43:57.070Z,18.81
2022-08-24T03:46:35.526Z,18.85
2022-08-24T03:49:08.611Z,18.87
2022-08-24T03:51:38.238Z,18.89
2022-08-24T03:54:13.545Z,18.90
2022-08-24T03:56:41.711Z,18.92
2022-08-24T03:59:10.700Z,18.89
2022-08-24T04:01:41.040Z,18.89
2022-08-24T04:04:10.106Z,18.93
2022-08-24T04:06:38.903Z,18.93
2022-08-24T04:09:07.833Z,18.95
2022-08-24T04:11:40.970Z,18.95
2022-08-24T04:14:12.103Z,18.91
2022-08-24T04:16:57.527Z,18.84
2022-08-24T04:19:31.098Z,18.82
2022-08-24T04:21:59.456Z,18.76
2022-08-24T04:24:28.958Z,18.72
2022-08-24T04:26:57.532Z,18.74
2022-08-24T04:29:26.035Z,18.74
2022-08-24T04:31:54.522Z,18.74
2022-08-24T04:34:23.354Z,18.74
2022-08-24T04:36:51.836Z,18.70
2022-08-24T04:39:19.701Z,18.65
2022-08-24T04:42:13.707Z,18.63
2022-08-24T04:44:42.132Z,18.67
2022-08-24T04:47:10.121Z,18.68
2022-08-24T04:49:39.331Z,18.63
2022-08-24T04:52:11.255Z,18.60
2022-08-24T04:54:40.034Z,18.62
2022-08-24T04:57:17.745Z,18.67
2022-08-24T04:59:47.410Z,18.75
2022-08-24T05:02:15.571Z,18.76
2022-08-24T05:04:43.893Z,18.77
2022-08-24T05:07:12.467Z,18.70
2022-08-24T05:09:41.694Z,18.64
2022-08-24T05:12:11.875Z,18.65
2022-08-24T05:14:42.647Z,18.71
2022-08-24T05:17:11.403Z,18.75
2022-08-24T05:19:39.796Z,18.76
2022-08-24T05:22:08.061Z,18.83
2022-08-24T05:24:37.015Z,18.90
2022-08-24T05:27:05.146Z,18.98
2022-08-24T05:29:34.644Z,18.98
2022-08-24T05:32:04.631Z,18.99
2022-08-24T05:34:33.060Z,19.05
2022-08-24T05:37:01.106Z,19.12
2022-08-24T05:39:53.403Z,19.19
2022-08-24T05:42:22.391Z,19.17
2022-08-24T05:44:50.333Z,19.24
2022-08-24T05:47:20.872Z,19.24
2022-08-24T05:49:53.130Z,19.37
2022-08-24T05:52:22.922Z,19.43
2022-08-24T05:54:54.663Z,19.51
2022-08-24T05:57:25.339Z,19.60
2022-08-24T06:00:09.724Z,19.66
2022-08-24T06:02:44.427Z,19.70
2022-08-24T06:05:14.106Z,19.83
2022-08-24T06:07:42.416Z,19.98
2022-08-24T06:10:35.497Z,20.01
2022-08-24T06:13:00.255Z,20.00
2022-08-24T06:15:28.479Z,19.94
2022-08-24T06:17:56.662Z,19.87
2022-08-24T06:20:25.479Z,19.88
2022-08-24T06:22:53.410Z,19.74
2022-08-24T06:25:40.432Z,19.79
2022-08-24T06:28:11.771Z,19.82
2022-08-24T06:30:39.734Z,19.81
2022-08-24T06:33:18.786Z,19.89
2022-08-24T06:35:50.096Z,19.87
2022-08-24T06:38:18.166Z,19.93
2022-08-24T06:40:48.671Z,20.10
2022-08-24T06:43:16.964Z,20.10
2022-08-24T06:45:53.341Z,20.19
2022-08-24T06:48:24.543Z,20.25
2022-08-24T06:50:54.071Z,20.41
2022-08-24T06:53:22.242Z,20.56
2022-08-24T06:55:58.923Z,20.67
2022-08-24T06:58:28.772Z,20.98
2022-08-24T07:00:57.387Z,20.89
2022-08-24T07:03:26.913Z,20.83
2022-08-24T07:06:03.683Z,20.75
2022-08-24T07:08:37.206Z,20.74
2022-08-24T07:11:05.993Z,21.09
2022-08-24T07:13:35.320Z,21.37
2022-08-24T07:16:04.893Z,21.53
2022-08-24T07:18:34.053Z,21.59
2022-08-24T07:21:04.900Z,21.38
2022-08-24T07:23:41.799Z,21.11
2022-08-24T07:26:21.242Z,21.26
2022-08-24T07:28:54.135Z,21.40
2022-08-24T07:31:22.540Z,21.60
2022-08-24T07:34:04.583Z,21.32
2022-08-24T07:36:34.054Z,21.16
2022-08-24T07:39:04.424Z,20.92
2022-08-24T07:41:51.448Z,20.84
2022-08-24T07:44:26.628Z,20.86
2022-08-24T07:46:55.869Z,20.98
2022-08-24T07:49:37.189Z,21.27
2022-08-24T07:52:07.522Z,21.47
2022-08-24T07:54:36.018Z,21.66
2022-08-24T07:57:06.561Z,21.83
2022-08-24T07:59:36.730Z,21.95
2022-08-24T08:02:05.634Z,22.01
2022-08-24T08:04:34.120Z,21.86
2022-08-24T08:07:02.991Z,21.83
2022-08-24T08:09:32.509Z,21.84
2022-08-24T08:12:00.818Z,22.05
2022-08-24T08:14:28.955Z,22.19
2022-08-24T08:16:57.107Z,22.26
2022-08-24T08:19:26.221Z,22.41
2022-08-24T08:22:13.052Z,22.59
2022-08-24T08:25:07.471Z,22.81
2022-08-24T08:27:36.430Z,22.94
2022-08-24T08:30:06.472Z,23.04
2022-08-24T08:32:34.924Z,23.07
2022-08-24T08:35:04.053Z,23.19
2022-08-24T08:37:33.766Z,23.39
2022-08-24T08:40:03.793Z,23.54
2022-08-24T08:43:10.498Z,23.61
2022-08-24T08:45:46.879Z,23.64
2022-08-24T08:49:15.319Z,23.55
2022-08-24T08:52:31.890Z,23.54
2022-08-24T08:55:25.039Z,23.62
2022-08-24T08:58:57.215Z,23.68
2022-08-24T09:02:17.899Z,24.03
2022-08-24T09:05:39.840Z,24.17
2022-08-24T09:08:37.804Z,23.79
2022-08-24T09:11:44.388Z,23.68
2022-08-24T09:14:46.980Z,23.68
2022-08-24T09:17:32.867Z,23.81
2022-08-24T09:20:44.427Z,24.22
2022-08-24T09:23:34.406Z,24.27
2022-08-24T09:26:30.863Z,24.31
2022-08-24T09:29:37.454Z,24.72
2022-08-24T09:32:37.695Z,24.37
2022-08-24T09:35:26.591Z,24.39
2022-08-24T09:38:14.979Z,24.49
2022-08-24T09:41:20.811Z,24.54
2022-08-24T09:44:36.731Z,24.72
2022-08-24T09:47:42.692Z,25.05
2022-08-24T09:50:59.808Z,24.26
2022-08-24T09:53:50.707Z,24.44
2022-08-24T09:56:46.767Z,24.45
2022-08-24T09:59:42.330Z,24.53
2022-08-24T10:03:00.054Z,24.69
2022-08-24T10:06:16.218Z,24.67
2022-08-24T10:09:27.245Z,24.94
2022-08-24T10:12:17.103Z,25.41
2022-08-24T10:15:04.822Z,25.27
2022-08-24T10:18:06.914Z,25.87
2022-08-24T10:21:12.551Z,26.13
2022-08-24T10:24:29.895Z,25.86
2022-08-24T10:27:31.248Z,26.20
2022-08-24T10:30:34.733Z,25.81
2022-08-24T10:33:28.754Z,25.96
2022-08-24T10:36:34.425Z,25.74
2022-08-24T10:39:42.534Z,26.05
2022-08-24T10:42:59.045Z,26.15
2022-08-24T10:45:52.364Z,26.42
2022-08-24T10:48:29.832Z,26.38
2022-08-24T10:51:40.228Z,26.39
2022-08-24T10:54:13.383Z,26.07
2022-08-24T10:57:11.610Z,26.07
2022-08-24T11:00:22.996Z,25.92
2022-08-24T11:03:06.158Z,25.68
2022-08-24T11:05:44.697Z,25.57
2022-08-24T11:08:50.891Z,25.69
2022-08-24T11:11:37.100Z,26.38
2022-08-24T11:14:15.106Z,26.34
2022-08-24T11:16:47.150Z,26.53
2022-08-24T11:19:27.107Z,26.74
2022-08-24T11:22:21.356Z,26.72
2022-08-24T11:24:54.050Z,26.72
2022-08-24T11:27:40.504Z,26.38
2022-08-24T11:30:17.285Z,26.29
2022-08-24T11:32:56.468Z,26.03
2022-08-24T11:35:33.878Z,26.21
2022-08-24T11:38:26.165Z,26.76
2022-08-24T11:41:23.936Z,26.92
2022-08-24T11:44:07.706Z,26.61
2022-08-24T11:46:53.453Z,27.00
2022-08-24T11:49:52.770Z,26.83
2022-08-24T11:53:11.337Z,26.22
2022-08-24T11:56:02.878Z,26.03
2022-08-24T11:58:53.898Z,26.21
2022-08-24T12:01:32.934Z,26.77
2022-08-24T12:04:49.459Z,27.14
2022-08-24T12:07:55.272Z,27.67
2022-08-24T12:11:00.638Z,27.59
2022-08-24T12:14:00.549Z,27.28
2022-08-24T12:16:55.316Z,27.00
2022-08-24T12:19:37.332Z,26.93
2022-08-24T12:22:09.311Z,26.56
2022-08-24T12:24:54.162Z,26.61
2022-08-24T12:27:34.474Z,26.63
2022-08-24T12:30:12.974Z,26.57
2022-08-24T12:32:53.755Z,26.41
2022-08-24T12:35:35.247Z,26.62
2022-08-24T12:38:16.246Z,27.27
2022-08-24T12:41:24.152Z,26.87
2022-08-24T12:44:09.619Z,26.72
2022-08-24T12:46:38.760Z,26.76
2022-08-24T12:49:19.663Z,26.83
2022-08-24T12:52:22.527Z,26.63
2022-08-24T12:55:35.323Z,26.30
2022-08-24T12:58:35.095Z,26.24
2022-08-24T13:01:06.732Z,26.20
2022-08-24T13:03:38.702Z,26.38
2022-08-24T13:06:17.205Z,26.27
2022-08-24T13:08:49.248Z,26.36
2022-08-24T13:11:27.445Z,26.48
2022-08-24T13:13:55.266Z,26.76
2022-08-24T13:16:56.514Z,27.58
2022-08-24T13:19:28.391Z,27.75
2022-08-24T13:22:00.989Z,27.71
2022-08-24T13:24:28.943Z,28.39
2022-08-24T13:27:17.566Z,28.33
2022-08-24T13:29:53.951Z,28.51
2022-08-24T13:32:35.601Z,28.73
2022-08-24T13:35:44.083Z,28.62
2022-08-24T13:38:34.412Z,28.22
2022-08-24T13:41:08.279Z,27.63
2022-08-24T13:44:15.396Z,27.17
2022-08-24T13:47:05.475Z,26.65
2022-08-24T13:50:26.145Z,26.66
2022-08-24T13:53:56.488Z,26.27
2022-08-24T13:56:24.532Z,26.30
2022-08-24T13:59:37.088Z,26.15
2022-08-24T14:02:27.616Z,26.09
2022-08-24T14:05:25.061Z,26.18
2022-08-24T14:08:19.947Z,26.17
2022-08-24T14:11:10.107Z,26.25
2022-08-24T14:13:54.015Z,26.69
2022-08-24T14:16:57.302Z,27.12
2022-08-24T14:20:00.784Z,27.49
2022-08-24T14:23:04.628Z,27.95
2022-08-24T14:25:36.837Z,27.54
2022-08-24T14:28:04.688Z,27.47
2022-08-24T14:30:33.930Z,27.72
2022-08-24T14:33:12.134Z,27.36
2022-08-24T14:36:08.393Z,27.15
2022-08-24T14:38:58.860Z,26.83
2022-08-24T14:41:52.337Z,27.24
2022-08-24T14:44:38.237Z,27.41
2022-08-24T14:48:02.350Z,27.94
2022-08-24T14:50:43.586Z,28.38
2022-08-24T14:54:02.411Z,28.36
2022-08-24T14:57:03.708Z,27.90
2022-08-24T15:00:05.677Z,27.65
2022-08-24T15:03:27.478Z,27.41
2022-08-24T15:06:46.535Z,27.42
2022-08-24T15:09:35.423Z,27.53
2022-08-24T15:12:38.786Z,27.81
2022-08-24T15:15:41.755Z,27.84
2022-08-24T15:18:36.849Z,27.48
2022-08-24T15:21:33.571Z,27.07
2022-08-24T15:27:27.273Z,26.54
2022-08-24T15:30:02.307Z,26.53
2022-08-24T15:33:19.292Z,26.41
2022-08-24T15:36:06.344Z,26.34
2022-08-24T15:38:37.542Z,26.40
2022-08-24T15:41:22.895Z,26.47
2022-08-24T15:43:56.878Z,26.59
2022-08-24T15:46:33.153Z,26.71
2022-08-24T15:49:24.711Z,26.63
2022-08-24T15:52:38.040Z,26.43
2022-08-24T15:55:08.422Z,26.13
2022-08-24T15:57:44.291Z,25.79
2022-08-24T16:00:41.500Z,25.67
2022-08-24T16:03:50.064Z,25.65
2022-08-24T16:06:33.142Z,25.63
2022-08-24T16:09:14.747Z,25.62
2022-08-24T16:11:51.133Z,25.65
2022-08-24T16:14:38.015Z,25.58
2022-08-24T16:17:33.337Z,25.56
2022-08-24T16:20:30.565Z,25.51
2022-08-24T16:23:04.748Z,25.52
2022-08-24T16:25:43.260Z,25.56
2022-08-24T16:28:21.768Z,25.52
2022-08-24T16:30:56.468Z,25.47
2022-08-24T16:33:43.605Z,25.43
2022-08-24T16:36:20.434Z,25.41
2022-08-24T16:38:51.403Z,25.35
2022-08-24T16:41:23.626Z,25.24
2022-08-24T16:43:52.164Z,25.21
2022-08-24T16:46:23.757Z,25.16
2022-08-24T16:48:54.299Z,25.16
2022-08-24T16:51:24.713Z,25.13
2022-08-24T16:53:53.861Z,25.10
2022-08-24T16:56:22.558Z,25.06
2022-08-24T16:58:51.228Z,25.00
2022-08-24T17:01:20.021Z,24.97
2022-08-24T17:03:48.654Z,24.94
2022-08-24T17:06:18.951Z,24.87
2022-08-24T17:08:47.984Z,24.83
2022-08-24T17:11:16.795Z,24.75
2022-08-24T17:13:51.830Z,24.73
2022-08-24T17:16:21.705Z,24.79
2022-08-24T17:18:49.844Z,24.80
2022-08-24T17:21:17.985Z,24.80
2022-08-24T17:23:46.400Z,24.76
2022-08-24T17:26:20.646Z,24.71
2022-08-24T17:28:54.428Z,24.68
2022-08-24T17:31:24.768Z,24.69
2022-08-24T17:33:53.215Z,24.65
2022-08-24T17:36:23.972Z,24.58
2022-08-24T17:38:56.282Z,24.52
2022-08-24T17:41:26.019Z,24.50
2022-08-24T17:43:54.897Z,24.45
2022-08-24T17:46:22.999Z,24.40
2022-08-24T17:48:51.095Z,24.33
2022-08-24T17:51:19.827Z,24.30
2022-08-24T17:53:47.758Z,24.25
2022-08-24T17:56:17.110Z,24.21
2022-08-24T17:59:04.812Z,24.16
2022-08-24T18:01:32.976Z,24.00
2022-08-24T18:04:00.886Z,23.98
2022-08-24T18:06:28.890Z,23.97
2022-08-24T18:09:02.935Z,23.96
2022-08-24T18:11:31.079Z,23.95
2022-08-24T18:14:01.535Z,23.92
2022-08-24T18:16:29.689Z,23.87
2022-08-24T18:18:57.912Z,23.83
2022-08-24T18:21:25.800Z,23.73
2022-08-24T18:23:53.680Z,23.64
2022-08-24T18:26:27.861Z,23.62
2022-08-24T18:29:11.988Z,23.67
2022-08-24T18:31:43.739Z,23.69
2022-08-24T18:34:17.842Z,23.66
2022-08-24T18:36:45.687Z,23.60
2022-08-24T18:39:14.065Z,23.53
2022-08-24T18:41:49.254Z,23.48
2022-08-24T18:44:21.023Z,23.41
2022-08-24T18:46:49.652Z,23.35
2022-08-24T18:49:20.186Z,23.27
2022-08-24T18:51:49.679Z,23.25
2022-08-24T18:54:22.487Z,23.26
2022-08-24T18:56:51.391Z,23.23
2022-08-24T18:59:21.690Z,23.20
2022-08-24T19:02:10.645Z,23.16
2022-08-24T19:04:45.967Z,23.10
2022-08-24T19:07:14.583Z,23.13
2022-08-24T19:09:42.693Z,23.21
2022-08-24T19:12:11.065Z,23.28
2022-08-24T19:14:43.359Z,23.27
2022-08-24T19:17:15.393Z,23.29
2022-08-24T19:19:43.411Z,23.29
2022-08-24T19:22:12.648Z,23.23
2022-08-24T19:24:42.455Z,23.18
2022-08-24T19:27:10.735Z,23.19
2022-08-24T19:29:55.042Z,23.18
2022-08-24T19:32:29.643Z,23.16
2022-08-24T19:34:58.720Z,23.11
2022-08-24T19:37:27.401Z,23.08
2022-08-24T19:39:55.498Z,23.02
2022-08-24T19:42:25.480Z,22.98
2022-08-24T19:45:13.064Z,22.91
2022-08-24T19:47:40.954Z,22.82
2022-08-24T19:50:10.308Z,22.77
2022-08-24T19:52:40.757Z,22.74
2022-08-24T19:55:09.955Z,22.71
2022-08-24T19:57:49.689Z,22.66
2022-08-24T20:00:17.487Z,22.61
2022-08-24T20:02:48.680Z,22.57
2022-08-24T20:05:20.303Z,22.52
2022-08-24T20:07:49.038Z,22.50
2022-08-24T20:10:20.863Z,22.42
2022-08-24T20:12:49.143Z,22.45
2022-08-24T20:15:18.003Z,22.41
2022-08-24T20:17:46.584Z,22.38
2022-08-24T20:20:18.442Z,22.33
2022-08-24T20:22:47.057Z,22.29
2022-08-24T20:25:15.625Z,22.28
2022-08-24T20:27:45.837Z,22.27
2022-08-24T20:30:16.885Z,22.26
2022-08-24T20:32:44.914Z,22.31
2022-08-24T20:35:15.895Z,22.33
2022-08-24T20:37:43.851Z,22.35
2022-08-24T20:40:16.891Z,22.40
2022-08-24T20:42:45.048Z,22.40
2022-08-24T20:45:14.902Z,22.39
2022-08-24T20:47:52.438Z,22.40
2022-08-24T20:50:24.364Z,22.37
2022-08-24T20:52:53.998Z,22.36
2022-08-24T20:55:24.459Z,22.34
2022-08-24T20:58:03.349Z,22.30
2022-08-24T21:00:31.501Z,22.24
2022-08-24T21:02:59.526Z,22.23
2022-08-24T21:05:27.671Z,22.18
2022-08-24T21:07:57.855Z,22.16
2022-08-24T21:10:27.378Z,22.14
2022-08-24T21:12:55.593Z,22.14
2022-08-24T21:15:23.593Z,22.13
2022-08-24T21:17:51.791Z,22.08
2022-08-24T21:20:20.486Z,22.10
2022-08-24T21:22:49.701Z,22.11
2022-08-24T21:25:18.266Z,22.10
2022-08-24T21:27:48.449Z,22.09
2022-08-24T21:30:21.883Z,22.11
2022-08-24T21:33:09.135Z,22.09
2022-08-24T21:35:38.246Z,22.05
2022-08-24T21:38:06.167Z,22.02
2022-08-24T21:40:36.181Z,22.00
2022-08-24T21:43:14.563Z,21.96
2022-08-24T21:45:43.038Z,21.92
2022-08-24T21:48:13.185Z,21.87
2022-08-24T21:50:41.395Z,21.83
2022-08-24T21:53:09.508Z,21.76
2022-08-24T21:55:41.281Z,21.70
2022-08-24T21:58:10.998Z,21.68
2022-08-24T22:00:39.297Z,21.66
2022-08-24T22:03:08.686Z,21.64
2022-08-24T22:05:37.307Z,21.57
2022-08-24T22:08:05.569Z,21.58
2022-08-24T22:10:33.484Z,21.62
2022-08-24T22:13:04.282Z,21.65
2022-08-24T22:15:36.845Z,21.65
2022-08-24T22:18:04.859Z,21.67
2022-08-24T22:20:32.858Z,21.64
2022-08-24T22:23:00.825Z,21.61
2022-08-24T22:25:29.996Z,21.59
2022-08-24T22:27:57.788Z,21.55
2022-08-24T22:30:25.759Z,21.54
2022-08-24T22:32:53.796Z,21.50
2022-08-24T22:35:21.779Z,21.52
2022-08-24T22:37:49.667Z,21.51
2022-08-24T22:40:19.139Z,21.50
2022-08-24T22:42:47.142Z,21.50
2022-08-24T22:45:15.730Z,21.46
2022-08-24T22:47:43.580Z,21.47
2022-08-24T22:50:11.398Z,21.46
2022-08-24T22:52:39.827Z,21.43
2022-08-24T22:55:08.761Z,21.39
2022-08-24T22:57:37.079Z,21.35
2022-08-24T23:00:09.792Z,21.29
2022-08-24T23:02:39.423Z,21.21
2022-08-24T23:05:08.839Z,21.16
2022-08-24T23:07:36.659Z,21.10
2022-08-24T23:10:06.199Z,21.07
2022-08-24T23:12:34.187Z,21.01
2022-08-24T23:15:02.064Z,20.98
2022-08-24T23:17:29.916Z,20.96
2022-08-24T23:20:00.764Z,20.99
2022-08-24T23:22:36.691Z,20.97
2022-08-24T23:25:09.055Z,20.90
2022-08-24T23:27:38.690Z,20.90
2022-08-24T23:30:12.523Z,20.89
2022-08-24T23:32:40.859Z,20.83
2022-08-24T23:35:09.411Z,20.78
2022-08-24T23:37:37.439Z,20.80
2022-08-24T23:40:05.960Z,20.79
2022-08-24T23:42:33.882Z,20.78
2022-08-24T23:45:01.730Z,20.76
2022-08-24T23:47:30.296Z,20.74
2022-08-24T23:50:06.704Z,20.74
2022-08-24T23:52:40.478Z,20.69
2022-08-24T23:55:21.760Z,20.69
2022-08-24T23:57:52.855Z,20.69
